Time;durP1;ratioP1;P1;durP2;ratioP2;P2;SDS_P1;SDS_P2;PMS_P1;PMS_P2;Temp;Humidity;BMP_temperature;BMP_pressure;BME280_temperature;BME280_humidity;BME280_pressure;Samples;Min_cycle;Max_cycle;Signal;HPM_P1;HPM_P2
2023/08/23 00:02:22;;;;;;;7.00;3.70;;;;;;;25.96;36.71;100636.32;108398;1277;22024;-58
2023/08/23 00:04:49;;;;;;;11.30;3.80;;;;;;;25.97;36.63;100641.11;108427;1274;21988;-58
2023/08/23 00:07:15;;;;;;;9.40;4.10;;;;;;;25.96;36.62;100639.35;108393;1283;21990;-58
2023/08/23 00:09:40;;;;;;;7.90;4.10;;;;;;;25.95;36.51;100639.58;108456;1277;21989;-58
2023/08/23 00:12:06;;;;;;;7.30;3.50;;;;;;;25.94;36.49;100638.21;108433;1277;21987;-58
2023/08/23 00:14:32;;;;;;;7.50;4.10;;;;;;;25.92;36.55;100635.52;108367;1273;21996;-77
2023/08/23 00:16:57;;;;;;;4.80;3.90;;;;;;;25.90;36.60;100637.29;108318;1277;23522;-78
2023/08/23 00:19:23;;;;;;;6.00;4.20;;;;;;;25.90;36.65;100638.36;108348;1276;22238;-78
2023/08/23 00:21:49;;;;;;;7.80;3.70;;;;;;;25.90;36.65;100640.68;108432;1282;21985;-76
2023/08/23 00:24:14;;;;;;;6.90;4.10;;;;;;;25.89;36.58;100642.92;108421;1282;22162;-68
2023/08/23 00:26:40;;;;;;;7.20;3.50;;;;;;;25.87;36.60;100645.02;108392;1277;21987;-76
2023/08/23 00:29:05;;;;;;;5.10;3.50;;;;;;;25.85;36.45;100639.98;108412;1277;22042;-59
2023/08/23 00:31:31;;;;;;;8.50;3.60;;;;;;;25.83;36.50;100639.73;108406;1278;21982;-61
2023/08/23 00:33:57;;;;;;;12.40;3.80;;;;;;;25.81;36.64;100636.48;108445;1283;21984;-77
2023/08/23 00:36:22;;;;;;;7.10;4.10;;;;;;;25.79;36.60;100633.92;108421;1278;21998;-60
2023/08/23 00:38:48;;;;;;;6.20;3.90;;;;;;;25.78;36.65;100631.15;108420;1281;21986;-77
2023/08/23 00:41:13;;;;;;;7.30;3.70;;;;;;;25.76;36.65;100634.48;108404;1281;21983;-72
2023/08/23 00:43:39;;;;;;;11.00;4.50;;;;;;;25.75;36.66;100627.60;108418;1281;21990;-59
2023/08/23 00:46:05;;;;;;;10.30;4.40;;;;;;;25.72;36.88;100628.01;108459;1272;21979;-74
2023/08/23 00:48:31;;;;;;;7.80;4.20;;;;;;;25.66;36.82;100629.27;108392;1283;21995;-59
2023/08/23 00:50:57;;;;;;;6.30;3.80;;;;;;;25.62;36.92;100628.73;108372;1278;21983;-58
2023/08/23 00:53:22;;;;;;;8.80;4.10;;;;;;;25.60;36.96;100624.35;108370;1271;21992;-76
2023/08/23 00:55:48;;;;;;;7.70;4.30;;;;;;;25.59;36.90;100618.64;108440;1276;21994;-76
2023/08/23 00:58:14;;;;;;;7.40;4.40;;;;;;;25.57;37.15;100619.89;108060;1277;22044;-63
2023/08/23 01:00:42;;;;;;;9.90;4.30;;;;;;;25.53;37.26;100615.86;108380;1277;21989;-58
2023/08/23 01:03:08;;;;;;;7.70;4.20;;;;;;;25.49;37.17;100614.88;108413;1280;21976;-77
2023/08/23 01:06:01;;;;;;;7.50;4.00;;;;;;;25.46;37.27;100616.34;108416;1282;23637;-58
2023/08/23 01:09:02;;;;;;;7.10;4.10;;;;;;;25.43;37.28;100611.31;108398;1278;21986;-58
2023/08/23 01:11:35;;;;;;;7.20;4.40;;;;;;;25.40;37.36;100613.30;108414;1282;21989;-77
2023/08/23 01:14:04;;;;;;;6.70;4.30;;;;;;;25.36;37.50;100613.61;108432;1281;21984;-77
2023/08/23 01:16:31;;;;;;;10.10;4.20;;;;;;;25.32;37.31;100608.52;108447;1281;22046;-58
2023/08/23 01:18:57;;;;;;;6.40;3.90;;;;;;;25.28;37.53;100606.46;108461;1282;23170;-57
2023/08/23 01:21:36;;;;;;;6.60;4.10;;;;;;;25.20;37.44;100609.52;108329;1283;21974;-59
2023/08/23 01:24:08;;;;;;;9.50;4.20;;;;;;;25.10;37.64;100606.25;108392;1283;22034;-58
2023/08/23 01:26:43;;;;;;;6.20;3.70;;;;;;;25.01;37.57;100606.67;108452;1281;21993;-77
2023/08/23 01:29:08;;;;;;;10.00;4.80;;;;;;;24.94;37.82;100606.44;108359;1277;21979;-76
2023/08/23 01:31:37;;;;;;;8.60;4.30;;;;;;;24.89;37.77;100608.96;108447;1281;22454;-65
2023/08/23 01:34:09;;;;;;;8.90;4.50;;;;;;;24.87;37.93;100603.22;108406;1280;21982;-57
2023/08/23 01:36:34;;;;;;;6.60;4.10;;;;;;;24.87;37.90;100601.41;108406;1274;23141;-57
2023/08/23 01:39:00;;;;;;;13.20;4.90;;;;;;;24.87;37.95;100598.91;108090;1283;21973;-76
2023/08/23 01:41:25;;;;;;;11.40;4.40;;;;;;;24.84;37.88;100592.24;108126;1282;21983;-75
2023/08/23 01:43:51;;;;;;;9.30;4.50;;;;;;;24.82;38.01;100589.52;108345;1277;21955;-57
2023/08/23 01:46:17;;;;;;;10.70;4.00;;;;;;;24.81;38.14;100586.73;108397;1276;21990;-74
2023/08/23 01:48:43;;;;;;;9.70;4.10;;;;;;;24.82;38.10;100589.20;108391;1281;21983;-58
2023/08/23 01:51:08;;;;;;;6.30;4.00;;;;;;;24.83;38.25;100593.59;108072;1282;21990;-61
2023/08/23 01:53:34;;;;;;;9.20;4.60;;;;;;;24.85;38.16;100590.59;108394;1282;22026;-70
2023/08/23 01:56:00;;;;;;;7.80;4.70;;;;;;;24.85;38.31;100588.96;108392;1283;21988;-76
2023/08/23 01:58:25;;;;;;;8.60;4.50;;;;;;;24.83;38.16;100591.45;108472;1277;21984;-77
2023/08/23 02:00:52;;;;;;;6.70;4.90;;;;;;;24.80;38.18;100593.07;108455;1280;23682;-76
2023/08/23 02:03:18;;;;;;;7.60;4.50;;;;;;;24.77;38.19;100593.60;108467;1281;21982;-77
2023/08/23 02:05:44;;;;;;;10.10;4.80;;;;;;;24.77;38.29;100592.70;108436;1275;21984;-58
2023/08/23 02:08:10;;;;;;;5.60;4.50;;;;;;;24.77;38.30;100590.79;108437;1274;22452;-58
2023/08/23 02:10:36;;;;;;;6.70;4.10;;;;;;;24.76;38.47;100589.20;108471;1281;22075;-58
2023/08/23 02:13:05;;;;;;;13.80;4.70;;;;;;;24.77;38.39;100591.32;108440;1274;22043;-77
2023/08/23 02:15:31;;;;;;;6.30;4.00;;;;;;;24.77;38.40;100592.21;108437;1278;21995;-58
2023/08/23 02:17:57;;;;;;;9.60;4.40;;;;;;;24.76;38.51;100589.75;108450;1281;21983;-78
2023/08/23 02:20:22;;;;;;;10.10;5.50;;;;;;;24.74;38.49;100589.70;108393;1276;21993;-58
2023/08/23 02:22:48;;;;;;;10.20;4.60;;;;;;;24.72;38.55;100590.37;108429;1277;22452;-58
2023/08/23 02:25:13;;;;;;;10.00;5.10;;;;;;;24.72;38.67;100590.95;108399;1281;21983;-77
2023/08/23 02:27:39;;;;;;;15.80;5.10;;;;;;;24.70;38.61;100593.91;108397;1277;22018;-59
2023/08/23 02:30:05;;;;;;;8.80;3.90;;;;;;;24.67;38.63;100595.19;108424;1282;22018;-58
2023/08/23 02:32:31;;;;;;;19.80;5.20;;;;;;;24.65;38.70;100595.88;108472;1271;22458;-57
2023/08/23 02:34:57;;;;;;;18.70;5.40;;;;;;;24.61;38.67;100602.18;108426;1282;21994;-77
2023/08/23 02:37:22;;;;;;;9.80;3.70;;;;;;;24.58;38.65;100603.83;108383;1277;22083;-57
2023/08/23 02:39:48;;;;;;;9.10;3.90;;;;;;;24.57;38.70;100601.79;108354;1280;23119;-58
2023/08/23 02:42:13;;;;;;;26.10;4.90;;;;;;;24.57;38.76;100597.29;108401;1281;23760;-56
2023/08/23 02:44:39;;;;;;;32.50;6.40;;;;;;;24.59;38.86;100591.64;108321;1277;21993;-56
2023/08/23 02:47:05;;;;;;;19.30;6.60;;;;;;;24.59;38.81;100592.86;108331;1283;21981;-76
2023/08/23 02:49:30;;;;;;;23.50;4.70;;;;;;;24.59;38.75;100594.30;108355;1276;23628;-77
2023/08/23 02:51:56;;;;;;;28.90;5.10;;;;;;;24.58;38.73;100593.96;108249;1280;21979;-57
2023/08/23 02:54:21;;;;;;;35.80;5.20;;;;;;;24.57;38.75;100596.23;108295;1280;21976;-57
2023/08/23 02:56:47;;;;;;;35.10;5.20;;;;;;;24.55;38.77;100600.85;108334;1278;21996;-58
2023/08/23 02:59:13;;;;;;;22.60;4.90;;;;;;;24.53;38.80;100602.76;108400;1277;21983;-79
2023/08/23 03:01:38;;;;;;;19.30;4.50;;;;;;;24.53;38.91;100601.36;108321;1280;23615;-77
2023/08/23 03:04:04;;;;;;;11.10;4.70;;;;;;;24.52;38.90;100602.67;108334;1277;22179;-77
2023/08/23 03:06:30;;;;;;;21.40;3.90;;;;;;;24.52;39.08;100604.82;108320;1277;24325;-58
2023/08/23 03:08:56;;;;;;;15.40;4.50;;;;;;;24.52;39.10;100599.62;108349;1276;22005;-59
2023/08/23 03:11:21;;;;;;;12.20;4.40;;;;;;;24.48;39.03;100598.08;108154;1284;21954;-81
2023/08/23 03:13:47;;;;;;;15.50;4.70;;;;;;;24.40;39.10;100598.97;108236;1278;21985;-81
2023/08/23 03:16:12;;;;;;;17.10;4.00;;;;;;;24.32;38.97;100602.02;108329;1280;22012;-58
2023/08/23 03:18:38;;;;;;;13.30;4.10;;;;;;;24.26;39.28;100605.98;108318;1277;21989;-80
2023/08/23 03:21:03;;;;;;;8.10;3.60;;;;;;;24.25;39.34;100607.70;108309;1277;21986;-58
2023/08/23 03:23:30;;;;;;;7.90;3.50;;;;;;;24.22;39.27;100609.48;108317;1274;21982;-71
2023/08/23 03:25:55;;;;;;;12.70;3.30;;;;;;;24.19;39.49;100613.59;108322;1281;21993;-78
2023/08/23 03:28:21;;;;;;;8.50;3.90;;;;;;;24.18;39.52;100617.77;108306;1277;22087;-57
2023/08/23 03:30:47;;;;;;;11.30;3.30;;;;;;;24.16;39.57;100617.95;108296;1283;21992;-56
2023/08/23 03:33:12;;;;;;;14.50;4.20;;;;;;;24.13;39.73;100620.45;108310;1277;22028;-74
2023/08/23 03:35:38;;;;;;;18.00;3.90;;;;;;;24.13;39.78;100620.08;108298;1284;22021;-59
2023/08/23 03:38:03;;;;;;;16.50;4.10;;;;;;;24.12;39.78;100621.59;108371;1271;21982;-76
2023/08/23 03:40:34;;;;;;;18.30;5.30;;;;;;;24.13;39.84;100624.91;108282;1283;21991;-77
2023/08/23 03:43:00;;;;;;;13.10;4.80;;;;;;;24.16;39.94;100622.02;108282;1276;22021;-77
2023/08/23 03:45:25;;;;;;;14.40;3.80;;;;;;;24.21;39.95;100625.29;108323;1283;23018;-57
2023/08/23 03:47:51;;;;;;;8.40;3.50;;;;;;;24.25;40.14;100625.94;108298;1274;21983;-56
2023/08/23 03:50:17;;;;;;;6.70;3.00;;;;;;;24.29;40.13;100629.09;108309;1283;22005;-78
2023/08/23 03:52:42;;;;;;;9.70;3.70;;;;;;;24.36;40.25;100629.53;108295;1281;22187;-57
2023/08/23 03:55:08;;;;;;;14.20;3.20;;;;;;;24.43;40.18;100626.59;108304;1278;21983;-76
2023/08/23 03:57:34;;;;;;;18.70;4.60;;;;;;;24.50;40.37;100624.86;108328;1283;22020;-56
2023/08/23 04:00:00;;;;;;;19.40;4.10;;;;;;;24.58;40.52;100622.16;108277;1284;21985;-73
2023/08/23 04:02:25;;;;;;;16.90;4.40;;;;;;;24.69;40.52;100623.57;108311;1277;22006;-57
2023/08/23 04:04:51;;;;;;;11.70;3.90;;;;;;;24.82;40.49;100625.91;108293;1276;21988;-75
2023/08/23 04:07:17;;;;;;;11.50;4.00;;;;;;;24.95;40.61;100626.52;108300;1276;21983;-56
2023/08/23 04:09:43;;;;;;;10.70;3.80;;;;;;;25.06;40.76;100628.98;108307;1277;21945;-73
2023/08/23 04:12:08;;;;;;;11.40;3.70;;;;;;;25.18;40.62;100627.45;108287;1276;22017;-76
2023/08/23 04:14:35;;;;;;;16.50;3.70;;;;;;;25.31;40.83;100631.54;108262;1281;22462;-73
2023/08/23 04:17:02;;;;;;;11.30;3.40;;;;;;;25.49;40.69;100628.88;108339;1277;21998;-72
2023/08/23 04:19:28;;;;;;;9.00;4.00;;;;;;;25.69;40.53;100627.30;108325;1274;21983;-56
2023/08/23 04:21:53;;;;;;;11.20;3.90;;;;;;;25.95;40.51;100625.95;108283;1284;21983;-56
2023/08/23 04:24:20;;;;;;;19.20;5.40;;;;;;;26.18;40.40;100631.30;108268;1277;21952;-57
2023/08/23 04:26:45;;;;;;;14.30;4.90;;;;;;;26.30;40.21;100628.80;108267;1281;22005;-57
2023/08/23 04:29:11;;;;;;;11.60;3.70;;;;;;;26.37;40.18;100627.36;108300;1277;22322;-56
2023/08/23 04:31:37;;;;;;;17.70;3.90;;;;;;;26.52;40.11;100625.38;108295;1274;21984;-56
2023/08/23 04:34:04;;;;;;;18.60;4.80;;;;;;;26.67;40.15;100629.60;108295;1277;21984;-55
2023/08/23 04:36:31;;;;;;;19.50;4.80;;;;;;;26.82;40.09;100631.20;108370;1283;22077;-56
2023/08/23 04:38:57;;;;;;;13.00;4.20;;;;;;;26.98;39.91;100630.22;108351;1284;22022;-56
2023/08/23 04:41:22;;;;;;;19.40;4.80;;;;;;;27.12;39.98;100630.05;108337;1274;21995;-56
2023/08/23 04:43:48;;;;;;;22.30;4.90;;;;;;;27.25;39.93;100632.23;108357;1280;21991;-56
2023/08/23 04:46:13;;;;;;;40.40;6.30;;;;;;;27.44;39.48;100634.35;108326;1274;22017;-56
2023/08/23 04:48:39;;;;;;;33.90;5.10;;;;;;;27.75;39.40;100631.93;108305;1282;21989;-82
2023/08/23 04:51:08;;;;;;;17.60;4.00;;;;;;;28.07;39.20;100630.07;108329;1283;21987;-82
2023/08/23 04:53:33;;;;;;;15.30;4.00;;;;;;;28.35;38.92;100632.61;108311;1281;21989;-56
2023/08/23 04:55:59;;;;;;;12.60;4.20;;;;;;;28.59;38.86;100626.48;108314;1273;21979;-57
2023/08/23 04:58:29;;;;;;;12.40;3.40;;;;;;;28.81;38.34;100626.64;108191;1273;22003;-83
2023/08/23 05:00:59;;;;;;;11.10;3.30;;;;;;;29.01;38.11;100628.17;108377;1276;22009;-83
2023/08/23 05:03:27;;;;;;;7.80;2.90;;;;;;;29.18;37.50;100627.64;108331;1281;21984;-57
2023/08/23 05:05:52;;;;;;;5.60;2.40;;;;;;;29.32;37.36;100625.35;108358;1274;21992;-56
2023/08/23 05:08:18;;;;;;;12.10;3.60;;;;;;;29.48;37.24;100623.80;108334;1271;21988;-86
2023/08/23 05:10:44;;;;;;;12.70;3.90;;;;;;;29.66;37.08;100626.58;108344;1283;22671;-56
2023/08/23 05:13:09;;;;;;;8.90;2.60;;;;;;;29.81;36.79;100625.05;108311;1284;22022;-75
2023/08/23 05:15:35;;;;;;;11.80;3.10;;;;;;;29.93;36.43;100620.37;108277;1274;22116;-77
2023/08/23 05:18:00;;;;;;;11.40;2.50;;;;;;;30.05;36.25;100621.45;108199;1281;21980;-74
2023/08/23 05:20:26;;;;;;;11.30;3.20;;;;;;;30.16;36.18;100620.46;108265;1281;21987;-57
2023/08/23 05:22:51;;;;;;;22.70;4.50;;;;;;;30.31;36.07;100622.02;108266;1283;22000;-57
2023/08/23 05:25:17;;;;;;;11.40;2.80;;;;;;;30.44;36.02;100618.59;108306;1277;21997;-74
2023/08/23 05:27:43;;;;;;;5.50;2.80;;;;;;;30.56;35.94;100617.74;108286;1283;22752;-74
2023/08/23 05:30:09;;;;;;;6.60;2.70;;;;;;;30.69;36.20;100618.55;108299;1277;22023;-57
2023/08/23 05:32:35;;;;;;;9.10;3.10;;;;;;;30.84;35.96;100617.81;108350;1284;21988;-73
2023/08/23 05:35:00;;;;;;;10.50;3.20;;;;;;;30.97;35.91;100617.73;108326;1281;21984;-69
2023/08/23 05:37:26;;;;;;;4.80;3.00;;;;;;;31.07;35.78;100614.23;108356;1277;21988;-57
2023/08/23 05:39:51;;;;;;;5.90;2.70;;;;;;;31.23;36.08;100611.64;108298;1283;21993;-74
2023/08/23 05:42:18;;;;;;;10.60;2.50;;;;;;;31.44;35.97;100604.52;108283;1281;23764;-74
2023/08/23 05:44:43;;;;;;;5.70;2.80;;;;;;;31.67;35.75;100599.40;108344;1278;21995;-58
2023/08/23 05:47:09;;;;;;;6.50;2.60;;;;;;;31.88;35.72;100603.74;108334;1277;22000;-57
2023/08/23 05:49:34;;;;;;;7.70;2.60;;;;;;;32.06;35.65;100602.30;108268;1277;21999;-73
2023/08/23 05:52:00;;;;;;;6.40;2.50;;;;;;;32.23;35.74;100602.06;108288;1277;22449;-73
2023/08/23 05:54:26;;;;;;;8.00;2.40;;;;;;;32.38;35.68;100598.02;108274;1283;22040;-72
2023/08/23 05:56:51;;;;;;;8.70;3.00;;;;;;;32.54;35.62;100594.96;108299;1281;22000;-74
2023/08/23 05:59:17;;;;;;;8.30;2.90;;;;;;;32.71;35.42;100601.55;108307;1278;21988;-57
2023/08/23 06:01:42;;;;;;;6.80;2.70;;;;;;;32.89;35.23;100604.43;108297;1278;21997;-73
2023/08/23 06:04:08;;;;;;;18.40;4.50;;;;;;;33.01;35.13;100605.46;108313;1281;22002;-57
2023/08/23 06:06:33;;;;;;;10.70;2.80;;;;;;;33.16;35.06;100607.33;108280;1283;21991;-74
2023/08/23 06:09:00;;;;;;;4.30;2.40;;;;;;;33.37;34.84;100608.85;108288;1283;21951;-59
2023/08/23 06:11:25;;;;;;;6.70;2.80;;;;;;;33.52;34.10;100615.05;108405;1277;22021;-72
2023/08/23 06:13:51;;;;;;;5.40;2.50;;;;;;;33.62;33.70;100614.73;108374;1277;21980;-58
2023/08/23 06:16:17;;;;;;;6.80;2.60;;;;;;;33.74;33.52;100611.60;108371;1282;21985;-58
2023/08/23 06:18:42;;;;;;;5.50;2.70;;;;;;;33.88;32.99;100615.52;108418;1282;21983;-74
2023/08/23 06:21:08;;;;;;;6.50;2.50;;;;;;;34.05;32.93;100619.90;108434;1277;21990;-72
2023/08/23 06:23:34;;;;;;;9.80;3.30;;;;;;;34.21;32.84;100620.10;108407;1277;21993;-58
2023/08/23 06:26:02;;;;;;;6.70;2.70;;;;;;;34.40;32.51;100617.89;108424;1281;22014;-59
2023/08/23 06:28:27;;;;;;;5.60;2.40;;;;;;;34.58;31.90;100620.84;108486;1277;21978;-58
2023/08/23 06:30:55;;;;;;;6.30;2.30;;;;;;;34.75;31.46;100618.02;108417;1274;22040;-59
2023/08/23 06:33:21;;;;;;;4.10;2.00;;;;;;;34.87;31.67;100614.64;108414;1282;21980;-73
2023/08/23 06:35:47;;;;;;;3.40;2.00;;;;;;;35.01;31.37;100610.94;108425;1276;22608;-62
2023/08/23 06:38:15;;;;;;;3.80;1.80;;;;;;;35.10;31.05;100611.54;108438;1271;21976;-58
2023/08/23 06:40:42;;;;;;;4.60;1.90;;;;;;;35.25;31.06;100609.45;108436;1281;21989;-73
2023/08/23 06:43:10;;;;;;;5.20;2.10;;;;;;;35.43;30.87;100608.71;108406;1278;21988;-58
2023/08/23 06:45:35;;;;;;;3.40;2.00;;;;;;;35.56;30.42;100613.06;108416;1275;21994;-73
2023/08/23 06:48:01;;;;;;;5.20;2.00;;;;;;;35.70;30.06;100618.47;108423;1281;22448;-58
2023/08/23 06:50:26;;;;;;;3.70;1.90;;;;;;;35.85;29.48;100617.68;108428;1271;21987;-74
2023/08/23 06:52:52;;;;;;;4.30;1.80;;;;;;;35.91;29.60;100610.42;108429;1282;22444;-73
2023/08/23 06:55:19;;;;;;;5.20;2.20;;;;;;;35.98;29.01;100610.88;108399;1277;23663;-73
2023/08/23 06:57:45;;;;;;;4.40;1.80;;;;;;;36.00;28.89;100609.63;108425;1282;22021;-58
2023/08/23 07:00:12;;;;;;;6.50;2.20;;;;;;;36.06;29.18;100607.34;108401;1275;21988;-58
2023/08/23 07:02:38;;;;;;;5.10;2.00;;;;;;;36.20;29.00;100607.41;108451;1281;21983;-74
2023/08/23 07:05:04;;;;;;;5.20;2.20;;;;;;;36.29;28.43;100603.12;108411;1275;22178;-72
2023/08/23 07:07:30;;;;;;;5.70;1.90;;;;;;;36.33;28.37;100600.88;108403;1277;21984;-75
2023/08/23 07:09:55;;;;;;;6.20;2.10;;;;;;;36.40;28.08;100601.48;108462;1281;21983;-59
2023/08/23 07:12:21;;;;;;;5.30;2.10;;;;;;;36.52;27.95;100598.27;108408;1273;22002;-74
2023/08/23 07:14:49;;;;;;;6.30;2.00;;;;;;;36.69;27.94;100595.94;108415;1276;21982;-58
2023/08/23 07:17:15;;;;;;;8.70;2.70;;;;;;;36.86;28.13;100593.30;108422;1277;21986;-59
2023/08/23 07:19:41;;;;;;;5.70;2.20;;;;;;;37.05;27.87;100594.52;108486;1276;22452;-61
2023/08/23 07:22:06;;;;;;;4.80;1.90;;;;;;;37.17;27.52;100592.50;108499;1282;21987;-74
2023/08/23 07:24:32;;;;;;;7.00;2.30;;;;;;;37.37;27.27;100585.45;108414;1281;22191;-58
2023/08/23 07:26:58;;;;;;;4.50;1.90;;;;;;;37.59;27.23;100580.00;108391;1275;21982;-59
2023/08/23 07:29:23;;;;;;;5.10;2.30;;;;;;;37.76;27.01;100580.63;108384;1271;21982;-59
2023/08/23 07:31:49;;;;;;;5.00;2.00;;;;;;;37.77;27.27;100577.38;108323;1274;21981;-72
2023/08/23 07:34:16;;;;;;;4.00;2.20;;;;;;;37.85;27.44;100575.56;108318;1270;23048;-69
2023/08/23 07:36:41;;;;;;;3.90;1.90;;;;;;;38.04;27.22;100578.88;108422;1281;21985;-59
2023/08/23 07:39:08;;;;;;;3.70;1.70;;;;;;;38.27;26.91;100580.33;108210;1281;309073;-72
2023/08/23 07:41:34;;;;;;;4.10;1.90;;;;;;;38.40;26.91;100580.36;108495;1282;23631;-59
2023/08/23 07:43:59;;;;;;;6.60;3.00;;;;;;;38.64;26.89;100585.19;108434;1271;22088;-72
2023/08/23 07:46:25;;;;;;;4.60;2.50;;;;;;;38.79;26.44;100583.40;108435;1283;21985;-59
2023/08/23 07:48:50;;;;;;;7.30;2.00;;;;;;;38.94;26.43;100579.52;108411;1271;21977;-72
2023/08/23 07:51:16;;;;;;;7.50;2.70;;;;;;;39.27;26.06;100583.63;108402;1282;21986;-59
2023/08/23 07:53:43;;;;;;;6.00;2.80;;;;;;;39.38;25.37;100589.67;108403;1283;21980;-71
2023/08/23 07:56:10;;;;;;;4.70;2.20;;;;;;;39.28;25.46;100587.32;108337;1280;21997;-78
2023/08/23 07:58:38;;;;;;;7.80;2.80;;;;;;;39.36;25.24;100583.21;108327;1283;21997;-75
2023/08/23 08:01:05;;;;;;;13.10;2.90;;;;;;;39.61;25.56;100583.75;108316;1281;23929;-59
2023/08/23 08:03:30;;;;;;;9.60;2.70;;;;;;;39.84;25.24;100583.29;108265;1284;21980;-59
2023/08/23 08:05:56;;;;;;;8.10;2.20;;;;;;;39.90;24.51;100577.63;108281;1284;21989;-72
2023/08/23 08:08:22;;;;;;;7.40;3.20;;;;;;;39.92;25.21;100576.15;108199;1284;23061;-73
2023/08/23 08:10:50;;;;;;;10.40;2.80;;;;;;;40.15;25.12;100581.63;108301;1283;21983;-71
2023/08/23 08:13:16;;;;;;;9.40;2.60;;;;;;;40.32;24.75;100577.71;108299;1273;22021;-72
2023/08/23 08:15:42;;;;;;;3.30;2.10;;;;;;;40.43;24.43;100580.43;108302;1277;22021;-60
2023/08/23 08:18:07;;;;;;;5.70;2.50;;;;;;;40.45;23.88;100581.83;108304;1274;21994;-59
2023/08/23 08:20:33;;;;;;;3.70;2.10;;;;;;;40.22;24.03;100585.52;108423;1276;22038;-73
2023/08/23 08:22:58;;;;;;;4.50;2.50;;;;;;;39.92;24.03;100583.27;108431;1281;21948;-59
2023/08/23 08:25:25;;;;;;;7.70;2.30;;;;;;;39.80;23.97;100577.69;108378;1276;21983;-59
2023/08/23 08:27:51;;;;;;;4.80;2.20;;;;;;;39.75;23.77;100571.98;108448;1281;22037;-71
2023/08/23 08:30:17;;;;;;;4.50;2.30;;;;;;;39.79;23.72;100572.51;108440;1281;21977;-72
2023/08/23 08:32:43;;;;;;;8.30;2.50;;;;;;;39.69;23.37;100574.59;108418;1271;22740;-73
2023/08/23 08:35:09;;;;;;;3.90;2.10;;;;;;;39.45;23.29;100575.39;108419;1277;22317;-72
2023/08/23 08:37:35;;;;;;;16.80;2.90;;;;;;;39.35;23.99;100572.84;108406;1277;24072;-60
2023/08/23 08:40:00;;;;;;;5.30;1.90;;;;;;;39.51;23.76;100575.27;108458;1271;21982;-73
2023/08/23 08:42:26;;;;;;;5.90;2.30;;;;;;;39.59;23.55;100576.14;108098;1283;22080;-72
2023/08/23 08:44:52;;;;;;;3.10;2.10;;;;;;;39.57;23.49;100571.57;108343;1282;21993;-73
2023/08/23 08:47:17;;;;;;;8.80;2.40;;;;;;;39.70;23.57;100575.31;108344;1280;22444;-72
2023/08/23 08:49:43;;;;;;;6.00;2.30;;;;;;;39.82;23.25;100575.99;108283;1283;23718;-74
2023/08/23 08:52:08;;;;;;;5.00;2.40;;;;;;;39.92;23.47;100573.60;108322;1281;23634;-58
2023/08/23 08:54:34;;;;;;;4.30;2.40;;;;;;;40.21;23.55;100567.81;108262;1271;22026;-73
2023/08/23 08:57:00;;;;;;;5.90;2.50;;;;;;;40.68;23.33;100557.62;108342;1283;23777;-71
2023/08/23 08:59:26;;;;;;;7.60;2.60;;;;;;;40.98;22.57;100557.59;108296;1276;22018;-59
2023/08/23 09:01:53;;;;;;;4.60;2.20;;;;;;;41.12;22.76;100554.60;108338;1276;21983;-71
2023/08/23 09:04:19;;;;;;;12.20;2.80;;;;;;;41.24;22.42;100558.89;108369;1274;23079;-71
2023/08/23 09:06:45;;;;;;;6.50;2.70;;;;;;;41.23;22.33;100557.03;108216;1283;21978;-60
2023/08/23 09:09:11;;;;;;;3.90;2.60;;;;;;;41.21;22.52;100556.45;108309;1273;22014;-64
2023/08/23 09:11:37;;;;;;;7.10;2.80;;;;;;;41.33;22.25;100557.11;108253;1278;22147;-61
2023/08/23 09:14:20;;;;;;;3.50;2.10;;;;;;;41.34;21.87;100547.98;108345;1283;21983;-72
2023/08/23 09:16:47;;;;;;;4.80;2.50;;;;;;;41.18;21.65;100544.89;108264;1277;21989;-59
2023/08/23 09:19:13;;;;;;;6.90;2.40;;;;;;;41.00;21.60;100540.77;108445;1283;21979;-73
2023/08/23 09:21:46;;;;;;;3.60;2.40;;;;;;;40.79;21.61;100536.66;108343;1278;23631;-72
2023/08/23 09:24:11;;;;;;;8.30;2.90;;;;;;;40.58;21.79;100532.65;108410;1270;23350;-74
2023/08/23 09:26:38;;;;;;;5.50;2.20;;;;;;;40.60;22.17;100530.81;108385;1271;21984;-61
2023/08/23 09:29:04;;;;;;;7.40;2.60;;;;;;;40.75;21.69;100529.58;108386;1277;21978;-60
2023/08/23 09:31:29;;;;;;;4.00;2.30;;;;;;;40.93;21.82;100529.75;108337;1278;21978;-62
2023/08/23 09:33:55;;;;;;;5.60;2.10;;;;;;;41.08;21.48;100521.39;108326;1271;21976;-60
2023/08/23 09:36:28;;;;;;;4.30;2.50;;;;;;;41.22;21.62;100519.65;108281;1272;22040;-61
2023/08/23 09:38:54;;;;;;;3.80;2.30;;;;;;;41.55;21.62;100517.75;108292;1271;21985;-60
2023/08/23 09:41:24;;;;;;;3.20;2.20;;;;;;;41.90;21.75;100512.80;108313;1278;21986;-72
2023/08/23 09:43:52;;;;;;;5.10;2.30;;;;;;;42.38;21.74;100511.02;108438;1281;21990;-71
2023/08/23 09:46:23;;;;;;;6.00;2.50;;;;;;;42.65;20.80;100507.48;108516;1283;23740;-72
2023/08/23 09:48:48;;;;;;;6.80;2.20;;;;;;;42.82;20.64;100510.67;108430;1283;23640;-58
2023/08/23 09:51:14;;;;;;;3.90;2.10;;;;;;;42.88;20.66;100511.64;108050;1280;21981;-71
2023/08/23 09:53:40;;;;;;;4.70;2.50;;;;;;;42.99;20.78;100510.02;108363;1278;22189;-72
2023/08/23 09:56:06;;;;;;;4.70;2.20;;;;;;;43.00;20.68;100514.45;108455;1281;23045;-59
2023/08/23 09:58:31;;;;;;;4.40;2.20;;;;;;;43.01;20.82;100515.36;108361;1280;21985;-59
2023/08/23 10:00:57;;;;;;;5.40;2.10;;;;;;;43.06;20.51;100511.67;108330;1280;21992;-59
2023/08/23 10:03:22;;;;;;;3.70;2.30;;;;;;;42.94;20.23;100507.35;108334;1277;23380;-72
2023/08/23 10:05:48;;;;;;;4.90;2.60;;;;;;;42.83;20.69;100505.56;108267;1277;23724;-59
2023/08/23 10:08:15;;;;;;;4.40;2.40;;;;;;;42.80;20.62;100503.32;108375;1283;22016;-59
2023/08/23 10:10:46;;;;;;;6.80;2.40;;;;;;;42.87;20.14;100503.25;108320;1282;21986;-59
2023/08/23 10:13:11;;;;;;;5.60;2.40;;;;;;;42.90;20.30;100508.29;108329;1271;22446;-73
2023/08/23 10:15:38;;;;;;;4.70;2.00;;;;;;;42.85;20.45;100508.69;108292;1270;21978;-73
2023/08/23 10:18:04;;;;;;;5.80;2.40;;;;;;;42.91;20.31;100507.69;108359;1272;21982;-72
2023/08/23 10:20:34;;;;;;;6.40;2.80;;;;;;;43.11;20.36;100503.02;108247;1277;22727;-59
2023/08/23 10:23:00;;;;;;;5.50;2.60;;;;;;;43.31;20.18;100504.05;108304;1283;21994;-72
2023/08/23 10:25:26;;;;;;;9.80;2.90;;;;;;;43.45;19.91;100501.05;108222;1282;23662;-73
2023/08/23 10:27:53;;;;;;;6.00;2.30;;;;;;;43.56;20.23;100492.15;108230;1280;21981;-73
2023/08/23 10:30:24;;;;;;;4.10;2.30;;;;;;;43.89;20.01;100489.58;108261;1274;21982;-72
2023/08/23 10:32:53;;;;;;;10.60;3.10;;;;;;;44.13;19.73;100486.14;108318;1283;21994;-73
2023/08/23 10:35:23;;;;;;;3.30;2.00;;;;;;;44.40;20.09;100481.98;108289;1284;21988;-72
2023/08/23 10:37:51;;;;;;;8.70;2.70;;;;;;;44.83;19.44;100475.33;108372;1281;21980;-72
2023/08/23 10:40:18;;;;;;;3.60;2.20;;;;;;;44.97;19.65;100476.42;108345;1280;21990;-74
2023/08/23 10:42:43;;;;;;;6.30;2.30;;;;;;;44.78;19.08;100472.77;108348;1275;23077;-73
2023/08/23 10:45:10;;;;;;;5.20;2.80;;;;;;;44.30;19.29;100473.02;108276;1280;21983;-73
2023/08/23 10:47:36;;;;;;;8.40;2.60;;;;;;;44.00;19.52;100472.56;108406;1277;21985;-59
2023/08/23 10:50:03;;;;;;;7.30;2.60;;;;;;;43.82;19.21;100469.05;108417;1278;21982;-71
2023/08/23 10:52:30;;;;;;;6.20;2.40;;;;;;;43.59;19.30;100470.13;108337;1283;23718;-73
2023/08/23 10:54:56;;;;;;;5.80;2.10;;;;;;;43.42;19.51;100471.29;108200;1283;21984;-59
2023/08/23 10:57:22;;;;;;;9.10;3.30;;;;;;;43.28;19.20;100463.36;108317;1283;21991;-59
2023/08/23 10:59:47;;;;;;;4.40;2.40;;;;;;;43.07;19.02;100461.54;108292;1277;21987;-59
2023/08/23 11:02:13;;;;;;;4.20;2.20;;;;;;;42.92;19.36;100457.77;108308;1283;22027;-59
2023/08/23 11:04:38;;;;;;;6.50;2.20;;;;;;;42.95;19.57;100454.17;108360;1282;21986;-59
2023/08/23 11:07:05;;;;;;;6.70;2.30;;;;;;;43.17;19.56;100451.59;108311;1282;21990;-71
2023/08/23 11:09:31;;;;;;;4.40;2.00;;;;;;;43.50;19.41;100443.11;108221;1280;21987;-72
2023/08/23 11:11:57;;;;;;;9.70;2.10;;;;;;;43.83;19.36;100438.30;108234;1283;23661;-71